sensor_id;sensor_type;location;lat;lon;timestamp;P1;durP1;ratioP1;P2;durP2;ratioP2
7977;SDS011;4034;48.004;10.902;2023-02-15T00:00:20;20.83;;;14.50;;
7977;SDS011;4034;48.004;10.902;2023-02-15T00:02:46;18.33;;;13.90;;
7977;SDS011;4034;48.004;10.902;2023-02-15T00:05:12;19.43;;;13.07;;
7977;SDS011;4034;48.004;10.902;2023-02-15T00:07:38;24.47;;;13.97;;
7977;SDS011;4034;48.004;10.902;2023-02-15T00:10:04;23.17;;;16.13;;
7977;SDS011;4034;48.004;10.902;2023-02-15T00:12:30;25.30;;;15.20;;
7977;SDS011;4034;48.004;10.902;2023-02-15T00:14:56;24.50;;;15.73;;
7977;SDS011;4034;48.004;10.902;2023-02-15T00:17:22;22.03;;;14.87;;
7977;SDS011;4034;48.004;10.902;2023-02-15T00:19:48;21.40;;;16.17;;
7977;SDS011;4034;48.004;10.902;2023-02-15T00:22:14;24.90;;;16.37;;
7977;SDS011;4034;48.004;10.902;2023-02-15T00:24:40;21.60;;;14.83;;
7977;SDS011;4034;48.004;10.902;2023-02-15T00:27:06;24.17;;;14.77;;
7977;SDS011;4034;48.004;10.902;2023-02-15T00:29:34;22.33;;;16.47;;
7977;SDS011;4034;48.004;10.902;2023-02-15T00:32:00;18.10;;;13.97;;
7977;SDS011;4034;48.004;10.902;2023-02-15T00:34:26;20.63;;;14.40;;
7977;SDS011;4034;48.004;10.902;2023-02-15T00:36:52;21.67;;;15.90;;
7977;SDS011;4034;48.004;10.902;2023-02-15T00:39:19;20.70;;;14.40;;
7977;SDS011;4034;48.004;10.902;2023-02-15T00:41:45;20.20;;;15.80;;
7977;SDS011;4034;48.004;10.902;2023-02-15T00:44:12;23.57;;;14.43;;
7977;SDS011;4034;48.004;10.902;2023-02-15T00:46:38;19.10;;;13.20;;
7977;SDS011;4034;48.004;10.902;2023-02-15T00:49:04;22.33;;;14.00;;
7977;SDS011;4034;48.004;10.902;2023-02-15T00:51:30;18.63;;;12.13;;
7977;SDS011;4034;48.004;10.902;2023-02-15T00:53:56;17.23;;;13.10;;
7977;SDS011;4034;48.004;10.902;2023-02-15T00:56:22;18.03;;;13.60;;
7977;SDS011;4034;48.004;10.902;2023-02-15T00:58:48;21.00;;;14.47;;
7977;SDS011;4034;48.004;10.902;2023-02-15T01:01:15;22.47;;;16.33;;
7977;SDS011;4034;48.004;10.902;2023-02-15T01:03:42;20.47;;;14.77;;
7977;SDS011;4034;48.004;10.902;2023-02-15T01:06:08;21.60;;;14.73;;
7977;SDS011;4034;48.004;10.902;2023-02-15T01:08:35;20.87;;;14.90;;
7977;SDS011;4034;48.004;10.902;2023-02-15T01:11:34;15.73;;;12.23;;
7977;SDS011;4034;48.004;10.902;2023-02-15T01:13:55;15.57;;;12.60;;
7977;SDS011;4034;48.004;10.902;2023-02-15T01:16:21;18.40;;;12.83;;
7977;SDS011;4034;48.004;10.902;2023-02-15T01:18:47;21.03;;;14.10;;
7977;SDS011;4034;48.004;10.902;2023-02-15T01:21:15;24.63;;;16.30;;
7977;SDS011;4034;48.004;10.902;2023-02-15T01:23:41;18.70;;;13.13;;
7977;SDS011;4034;48.004;10.902;2023-02-15T01:26:07;18.73;;;13.70;;
7977;SDS011;4034;48.004;10.902;2023-02-15T01:28:34;19.83;;;12.53;;
7977;SDS011;4034;48.004;10.902;2023-02-15T01:31:04;23.60;;;15.83;;
7977;SDS011;4034;48.004;10.902;2023-02-15T01:33:30;23.63;;;14.63;;
7977;SDS011;4034;48.004;10.902;2023-02-15T01:35:56;22.33;;;12.87;;
7977;SDS011;4034;48.004;10.902;2023-02-15T01:38:23;25.37;;;15.53;;
7977;SDS011;4034;48.004;10.902;2023-02-15T01:40:52;21.20;;;13.90;;
7977;SDS011;4034;48.004;10.902;2023-02-15T01:43:18;22.73;;;12.93;;
7977;SDS011;4034;48.004;10.902;2023-02-15T01:45:45;14.00;;;11.00;;
7977;SDS011;4034;48.004;10.902;2023-02-15T01:50:43;22.03;;;12.80;;
7977;SDS011;4034;48.004;10.902;2023-02-15T01:53:27;20.83;;;14.10;;
7977;SDS011;4034;48.004;10.902;2023-02-15T01:56:02;28.03;;;12.07;;
7977;SDS011;4034;48.004;10.902;2023-02-15T01:58:29;19.70;;;14.17;;
7977;SDS011;4034;48.004;10.902;2023-02-15T02:00:56;25.87;;;14.57;;
7977;SDS011;4034;48.004;10.902;2023-02-15T02:03:29;22.40;;;13.97;;
7977;SDS011;4034;48.004;10.902;2023-02-15T02:05:56;18.43;;;13.27;;
7977;SDS011;4034;48.004;10.902;2023-02-15T02:08:22;20.80;;;14.67;;
7977;SDS011;4034;48.004;10.902;2023-02-15T02:10:48;22.07;;;13.73;;
7977;SDS011;4034;48.004;10.902;2023-02-15T02:13:14;20.80;;;13.60;;
7977;SDS011;4034;48.004;10.902;2023-02-15T02:15:44;24.80;;;16.63;;
7977;SDS011;4034;48.004;10.902;2023-02-15T02:20:51;20.10;;;14.03;;
7977;SDS011;4034;48.004;10.902;2023-02-15T02:23:27;20.37;;;15.40;;
7977;SDS011;4034;48.004;10.902;2023-02-15T02:31:25;25.93;;;13.87;;
7977;SDS011;4034;48.004;10.902;2023-02-15T02:44:07;19.50;;;11.63;;
7977;SDS011;4034;48.004;10.902;2023-02-15T02:46:44;16.10;;;11.30;;
7977;SDS011;4034;48.004;10.902;2023-02-15T02:49:11;20.07;;;13.27;;
7977;SDS011;4034;48.004;10.902;2023-02-15T02:51:38;20.00;;;11.50;;
7977;SDS011;4034;48.004;10.902;2023-02-15T02:54:05;14.57;;;11.63;;
7977;SDS011;4034;48.004;10.902;2023-02-15T02:58:59;19.83;;;13.67;;
7977;SDS011;4034;48.004;10.902;2023-02-15T03:02:00;16.03;;;11.40;;
7977;SDS011;4034;48.004;10.902;2023-02-15T03:04:20;17.77;;;13.90;;
7977;SDS011;4034;48.004;10.902;2023-02-15T03:06:58;16.07;;;12.53;;
7977;SDS011;4034;48.004;10.902;2023-02-15T03:09:27;19.50;;;13.83;;
7977;SDS011;4034;48.004;10.902;2023-02-15T03:12:07;17.67;;;12.53;;
7977;SDS011;4034;48.004;10.902;2023-02-15T03:14:33;14.20;;;11.73;;
7977;SDS011;4034;48.004;10.902;2023-02-15T03:16:59;17.80;;;12.87;;
7977;SDS011;4034;48.004;10.902;2023-02-15T03:19:35;15.70;;;10.90;;
7977;SDS011;4034;48.004;10.902;2023-02-15T03:22:10;16.23;;;11.60;;
7977;SDS011;4034;48.004;10.902;2023-02-15T03:24:43;16.80;;;11.73;;
7977;SDS011;4034;48.004;10.902;2023-02-15T03:27:17;15.03;;;10.77;;
7977;SDS011;4034;48.004;10.902;2023-02-15T03:29:50;11.93;;;10.03;;
7977;SDS011;4034;48.004;10.902;2023-02-15T03:32:17;16.30;;;12.53;;
7977;SDS011;4034;48.004;10.902;2023-02-15T03:34:44;13.73;;;12.07;;
7977;SDS011;4034;48.004;10.902;2023-02-15T03:37:12;17.00;;;12.73;;
7977;SDS011;4034;48.004;10.902;2023-02-15T03:39:53;15.77;;;11.87;;
7977;SDS011;4034;48.004;10.902;2023-02-15T03:42:27;20.07;;;12.37;;
7977;SDS011;4034;48.004;10.902;2023-02-15T03:47:30;20.90;;;11.33;;
7977;SDS011;4034;48.004;10.902;2023-02-15T03:50:01;21.47;;;12.97;;
7977;SDS011;4034;48.004;10.902;2023-02-15T03:52:29;17.47;;;12.60;;
7977;SDS011;4034;48.004;10.902;2023-02-15T03:54:57;14.20;;;10.67;;
7977;SDS011;4034;48.004;10.902;2023-02-15T03:57:25;17.17;;;11.53;;
7977;SDS011;4034;48.004;10.902;2023-02-15T04:05:42;15.50;;;10.43;;
7977;SDS011;4034;48.004;10.902;2023-02-15T04:08:09;18.80;;;11.10;;
7977;SDS011;4034;48.004;10.902;2023-02-15T04:10:35;13.57;;;11.17;;
7977;SDS011;4034;48.004;10.902;2023-02-15T04:13:17;13.57;;;10.50;;
7977;SDS011;4034;48.004;10.902;2023-02-15T04:15:43;13.87;;;10.43;;
7977;SDS011;4034;48.004;10.902;2023-02-15T04:18:27;14.53;;;10.07;;
7977;SDS011;4034;48.004;10.902;2023-02-15T04:21:12;12.87;;;8.97;;
7977;SDS011;4034;48.004;10.902;2023-02-15T04:23:56;16.43;;;10.30;;
7977;SDS011;4034;48.004;10.902;2023-02-15T04:26:41;15.43;;;11.07;;
7977;SDS011;4034;48.004;10.902;2023-02-15T04:29:07;16.17;;;11.27;;
7977;SDS011;4034;48.004;10.902;2023-02-15T04:31:33;17.30;;;11.70;;
7977;SDS011;4034;48.004;10.902;2023-02-15T04:33:59;11.47;;;9.13;;
7977;SDS011;4034;48.004;10.902;2023-02-15T04:36:25;14.93;;;9.80;;
7977;SDS011;4034;48.004;10.902;2023-02-15T04:38:51;13.70;;;10.40;;
7977;SDS011;4034;48.004;10.902;2023-02-15T04:41:17;13.17;;;10.30;;
7977;SDS011;4034;48.004;10.902;2023-02-15T04:43:43;15.40;;;10.83;;
7977;SDS011;4034;48.004;10.902;2023-02-15T04:46:09;13.20;;;10.13;;
7977;SDS011;4034;48.004;10.902;2023-02-15T04:48:35;13.50;;;10.27;;
7977;SDS011;4034;48.004;10.902;2023-02-15T04:51:05;13.03;;;11.53;;
7977;SDS011;4034;48.004;10.902;2023-02-15T04:53:31;14.40;;;11.33;;
7977;SDS011;4034;48.004;10.902;2023-02-15T04:55:57;13.27;;;10.43;;
7977;SDS011;4034;48.004;10.902;2023-02-15T04:58:23;16.00;;;11.40;;
7977;SDS011;4034;48.004;10.902;2023-02-15T05:00:49;15.83;;;10.90;;
7977;SDS011;4034;48.004;10.902;2023-02-15T05:03:15;11.53;;;9.23;;
7977;SDS011;4034;48.004;10.902;2023-02-15T05:05:42;11.70;;;8.77;;
7977;SDS011;4034;48.004;10.902;2023-02-15T05:08:08;14.73;;;10.07;;
7977;SDS011;4034;48.004;10.902;2023-02-15T05:10:34;11.07;;;8.80;;
7977;SDS011;4034;48.004;10.902;2023-02-15T05:13:00;9.90;;;8.90;;
7977;SDS011;4034;48.004;10.902;2023-02-15T05:15:26;15.60;;;11.27;;
7977;SDS011;4034;48.004;10.902;2023-02-15T05:17:52;12.73;;;10.17;;
7977;SDS011;4034;48.004;10.902;2023-02-15T05:20:18;17.80;;;10.77;;
7977;SDS011;4034;48.004;10.902;2023-02-15T05:22:44;12.37;;;9.57;;
7977;SDS011;4034;48.004;10.902;2023-02-15T05:25:10;13.83;;;10.07;;
7977;SDS011;4034;48.004;10.902;2023-02-15T05:27:54;15.60;;;9.77;;
7977;SDS011;4034;48.004;10.902;2023-02-15T05:30:39;12.07;;;10.30;;
7977;SDS011;4034;48.004;10.902;2023-02-15T05:33:08;12.70;;;9.47;;
7977;SDS011;4034;48.004;10.902;2023-02-15T05:35:34;13.47;;;9.87;;
7977;SDS011;4034;48.004;10.902;2023-02-15T05:38:00;16.57;;;9.63;;
7977;SDS011;4034;48.004;10.902;2023-02-15T05:40:26;14.17;;;9.67;;
7977;SDS011;4034;48.004;10.902;2023-02-15T05:42:52;16.60;;;10.57;;
7977;SDS011;4034;48.004;10.902;2023-02-15T05:45:18;12.37;;;10.47;;
7977;SDS011;4034;48.004;10.902;2023-02-15T05:47:44;14.10;;;9.30;;
7977;SDS011;4034;48.004;10.902;2023-02-15T05:50:10;11.63;;;9.40;;
7977;SDS011;4034;48.004;10.902;2023-02-15T05:52:36;15.80;;;10.33;;
7977;SDS011;4034;48.004;10.902;2023-02-15T05:55:03;14.90;;;10.43;;
7977;SDS011;4034;48.004;10.902;2023-02-15T05:57:29;15.53;;;9.27;;
7977;SDS011;4034;48.004;10.902;2023-02-15T05:59:55;16.97;;;9.57;;
7977;SDS011;4034;48.004;10.902;2023-02-15T06:02:21;16.33;;;11.10;;
7977;SDS011;4034;48.004;10.902;2023-02-15T06:04:47;15.43;;;10.97;;
7977;SDS011;4034;48.004;10.902;2023-02-15T06:07:13;14.23;;;11.00;;
7977;SDS011;4034;48.004;10.902;2023-02-15T06:09:39;23.30;;;15.80;;
7977;SDS011;4034;48.004;10.902;2023-02-15T06:12:05;18.90;;;14.37;;
7977;SDS011;4034;48.004;10.902;2023-02-15T06:14:31;20.00;;;13.73;;
7977;SDS011;4034;48.004;10.902;2023-02-15T06:16:57;22.93;;;13.83;;
7977;SDS011;4034;48.004;10.902;2023-02-15T06:19:23;18.53;;;13.67;;
7977;SDS011;4034;48.004;10.902;2023-02-15T06:21:49;14.53;;;11.20;;
7977;SDS011;4034;48.004;10.902;2023-02-15T06:24:15;14.40;;;11.23;;
7977;SDS011;4034;48.004;10.902;2023-02-15T06:26:41;17.83;;;11.33;;
7977;SDS011;4034;48.004;10.902;2023-02-15T06:29:07;14.13;;;9.70;;
7977;SDS011;4034;48.004;10.902;2023-02-15T06:31:33;19.03;;;12.23;;
7977;SDS011;4034;48.004;10.902;2023-02-15T06:33:59;15.33;;;10.73;;
7977;SDS011;4034;48.004;10.902;2023-02-15T06:36:29;16.80;;;11.40;;
7977;SDS011;4034;48.004;10.902;2023-02-15T06:38:56;15.40;;;10.67;;
7977;SDS011;4034;48.004;10.902;2023-02-15T06:41:22;16.20;;;10.97;;
7977;SDS011;4034;48.004;10.902;2023-02-15T06:43:49;15.70;;;11.03;;
7977;SDS011;4034;48.004;10.902;2023-02-15T06:46:15;19.27;;;12.63;;
7977;SDS011;4034;48.004;10.902;2023-02-15T06:48:41;21.47;;;13.37;;
7977;SDS011;4034;48.004;10.902;2023-02-15T06:51:07;20.20;;;12.50;;
7977;SDS011;4034;48.004;10.902;2023-02-15T06:53:33;16.03;;;11.60;;
7977;SDS011;4034;48.004;10.902;2023-02-15T06:56:04;18.37;;;12.17;;
7977;SDS011;4034;48.004;10.902;2023-02-15T06:58:32;20.07;;;13.27;;
7977;SDS011;4034;48.004;10.902;2023-02-15T07:00:58;18.23;;;13.30;;
7977;SDS011;4034;48.004;10.902;2023-02-15T07:03:24;22.67;;;14.37;;
7977;SDS011;4034;48.004;10.902;2023-02-15T07:05:54;20.63;;;13.73;;
7977;SDS011;4034;48.004;10.902;2023-02-15T07:08:21;20.57;;;13.17;;
7977;SDS011;4034;48.004;10.902;2023-02-15T07:10:48;17.47;;;12.87;;
7977;SDS011;4034;48.004;10.902;2023-02-15T07:13:14;18.57;;;12.10;;
7977;SDS011;4034;48.004;10.902;2023-02-15T07:15:40;20.50;;;13.40;;
7977;SDS011;4034;48.004;10.902;2023-02-15T07:18:06;19.20;;;13.90;;
7977;SDS011;4034;48.004;10.902;2023-02-15T07:20:33;16.87;;;12.43;;
7977;SDS011;4034;48.004;10.902;2023-02-15T07:23:00;16.43;;;12.03;;
7977;SDS011;4034;48.004;10.902;2023-02-15T07:25:26;18.77;;;12.07;;
7977;SDS011;4034;48.004;10.902;2023-02-15T07:27:56;18.17;;;11.97;;
7977;SDS011;4034;48.004;10.902;2023-02-15T07:30:23;17.10;;;12.97;;
7977;SDS011;4034;48.004;10.902;2023-02-15T07:32:49;16.83;;;12.07;;
7977;SDS011;4034;48.004;10.902;2023-02-15T07:35:33;14.50;;;12.03;;
7977;SDS011;4034;48.004;10.902;2023-02-15T07:40:29;12.83;;;10.10;;
7977;SDS011;4034;48.004;10.902;2023-02-15T07:42:57;10.67;;;8.77;;
7977;SDS011;4034;48.004;10.902;2023-02-15T07:45:23;9.70;;;8.13;;
7977;SDS011;4034;48.004;10.902;2023-02-15T07:47:49;9.53;;;8.27;;
7977;SDS011;4034;48.004;10.902;2023-02-15T07:50:15;8.43;;;7.63;;
7977;SDS011;4034;48.004;10.902;2023-02-15T07:52:41;8.93;;;6.87;;
7977;SDS011;4034;48.004;10.902;2023-02-15T07:55:07;8.67;;;7.40;;
7977;SDS011;4034;48.004;10.902;2023-02-15T07:57:37;8.23;;;7.00;;
7977;SDS011;4034;48.004;10.902;2023-02-15T08:00:03;8.43;;;7.20;;
7977;SDS011;4034;48.004;10.902;2023-02-15T08:07:21;7.60;;;6.80;;
7977;SDS011;4034;48.004;10.902;2023-02-15T08:09:47;6.43;;;5.97;;
7977;SDS011;4034;48.004;10.902;2023-02-15T08:12:13;5.73;;;5.33;;
7977;SDS011;4034;48.004;10.902;2023-02-15T08:14:39;6.00;;;5.60;;
7977;SDS011;4034;48.004;10.902;2023-02-15T08:17:05;7.13;;;6.23;;
7977;SDS011;4034;48.004;10.902;2023-02-15T08:19:31;6.40;;;5.80;;
7977;SDS011;4034;48.004;10.902;2023-02-15T08:21:59;5.93;;;5.53;;
7977;SDS011;4034;48.004;10.902;2023-02-15T08:24:29;6.63;;;5.60;;
7977;SDS011;4034;48.004;10.902;2023-02-15T08:26:55;5.80;;;5.40;;
7977;SDS011;4034;48.004;10.902;2023-02-15T08:29:23;6.17;;;5.63;;
7977;SDS011;4034;48.004;10.902;2023-02-15T08:31:50;5.53;;;5.10;;
7977;SDS011;4034;48.004;10.902;2023-02-15T08:34:19;6.50;;;6.00;;
7977;SDS011;4034;48.004;10.902;2023-02-15T08:36:46;5.93;;;5.43;;
7977;SDS011;4034;48.004;10.902;2023-02-15T08:39:12;5.37;;;4.97;;
7977;SDS011;4034;48.004;10.902;2023-02-15T08:41:39;5.30;;;4.90;;
7977;SDS011;4034;48.004;10.902;2023-02-15T08:44:07;5.93;;;5.43;;
7977;SDS011;4034;48.004;10.902;2023-02-15T08:46:36;5.30;;;5.00;;
7977;SDS011;4034;48.004;10.902;2023-02-15T08:49:02;5.60;;;5.20;;
7977;SDS011;4034;48.004;10.902;2023-02-15T08:51:29;5.50;;;5.00;;
7977;SDS011;4034;48.004;10.902;2023-02-15T08:53:57;5.77;;;5.37;;
7977;SDS011;4034;48.004;10.902;2023-02-15T08:56:24;5.23;;;4.83;;
7977;SDS011;4034;48.004;10.902;2023-02-15T09:01:18;5.90;;;5.40;;
7977;SDS011;4034;48.004;10.902;2023-02-15T09:06:14;6.90;;;6.30;;
7977;SDS011;4034;48.004;10.902;2023-02-15T09:08:40;9.23;;;8.33;;
7977;SDS011;4034;48.004;10.902;2023-02-15T12:57:33;7.30;;;6.17;;
7977;SDS011;4034;48.004;10.902;2023-02-15T13:00:00;6.50;;;5.27;;
7977;SDS011;4034;48.004;10.902;2023-02-15T13:02:30;7.93;;;5.73;;
7977;SDS011;4034;48.004;10.902;2023-02-15T13:04:56;7.70;;;5.60;;
7977;SDS011;4034;48.004;10.902;2023-02-15T13:07:24;10.47;;;5.23;;
7977;SDS011;4034;48.004;10.902;2023-02-15T13:09:50;6.00;;;5.43;;
7977;SDS011;4034;48.004;10.902;2023-02-15T13:12:27;6.00;;;5.47;;
7977;SDS011;4034;48.004;10.902;2023-02-15T13:19:50;5.33;;;4.93;;
7977;SDS011;4034;48.004;10.902;2023-02-15T13:22:18;5.37;;;4.83;;
7977;SDS011;4034;48.004;10.902;2023-02-15T13:24:50;6.17;;;5.67;;
7977;SDS011;4034;48.004;10.902;2023-02-15T14:35:26;5.03;;;4.53;;
7977;SDS011;4034;48.004;10.902;2023-02-15T14:48:10;5.70;;;4.67;;
7977;SDS011;4034;48.004;10.902;2023-02-15T14:50:38;5.40;;;5.00;;
7977;SDS011;4034;48.004;10.902;2023-02-15T14:55:40;4.90;;;4.50;;
7977;SDS011;4034;48.004;10.902;2023-02-15T14:58:12;6.23;;;4.40;;
7977;SDS011;4034;48.004;10.902;2023-02-15T15:00:39;5.10;;;4.70;;
7977;SDS011;4034;48.004;10.902;2023-02-15T16:16:08;9.50;;;8.70;;
7977;SDS011;4034;48.004;10.902;2023-02-15T16:21:03;9.53;;;8.67;;
7977;SDS011;4034;48.004;10.902;2023-02-15T16:38:14;10.90;;;9.33;;
7977;SDS011;4034;48.004;10.902;2023-02-15T16:40:42;11.90;;;9.77;;
7977;SDS011;4034;48.004;10.902;2023-02-15T16:43:15;12.70;;;10.47;;
7977;SDS011;4034;48.004;10.902;2023-02-15T16:45:42;11.23;;;10.03;;
7977;SDS011;4034;48.004;10.902;2023-02-15T16:48:11;14.27;;;10.57;;
7977;SDS011;4034;48.004;10.902;2023-02-15T16:50:38;16.13;;;10.83;;
7977;SDS011;4034;48.004;10.902;2023-02-15T16:53:04;18.87;;;10.77;;
7977;SDS011;4034;48.004;10.902;2023-02-15T16:55:35;12.30;;;10.27;;
7977;SDS011;4034;48.004;10.902;2023-02-15T16:58:03;15.13;;;11.53;;
7977;SDS011;4034;48.004;10.902;2023-02-15T17:00:36;21.40;;;11.63;;
7977;SDS011;4034;48.004;10.902;2023-02-15T17:03:08;15.63;;;11.20;;
7977;SDS011;4034;48.004;10.902;2023-02-15T17:05:46;15.27;;;12.13;;
7977;SDS011;4034;48.004;10.902;2023-02-15T17:10:39;13.50;;;9.33;;
7977;SDS011;4034;48.004;10.902;2023-02-15T17:15:36;14.30;;;9.57;;
7977;SDS011;4034;48.004;10.902;2023-02-15T17:18:03;11.50;;;8.40;;
7977;SDS011;4034;48.004;10.902;2023-02-15T17:20:31;10.10;;;9.00;;
7977;SDS011;4034;48.004;10.902;2023-02-15T17:22:57;10.53;;;8.80;;
7977;SDS011;4034;48.004;10.902;2023-02-15T17:25:25;10.80;;;8.40;;
7977;SDS011;4034;48.004;10.902;2023-02-15T17:27:53;10.70;;;9.30;;
7977;SDS011;4034;48.004;10.902;2023-02-15T17:30:26;11.40;;;8.17;;
7977;SDS011;4034;48.004;10.902;2023-02-15T17:33:00;13.10;;;10.17;;
7977;SDS011;4034;48.004;10.902;2023-02-15T17:35:27;15.97;;;10.60;;
7977;SDS011;4034;48.004;10.902;2023-02-15T17:38:04;13.67;;;9.13;;
7977;SDS011;4034;48.004;10.902;2023-02-15T17:40:32;9.57;;;8.67;;
7977;SDS011;4034;48.004;10.902;2023-02-15T17:42:58;14.13;;;9.00;;
7977;SDS011;4034;48.004;10.902;2023-02-15T17:45:26;12.10;;;10.80;;
7977;SDS011;4034;48.004;10.902;2023-02-15T17:47:56;12.27;;;10.80;;
7977;SDS011;4034;48.004;10.902;2023-02-15T17:50:24;13.97;;;9.37;;
7977;SDS011;4034;48.004;10.902;2023-02-15T17:52:51;10.10;;;8.87;;
7977;SDS011;4034;48.004;10.902;2023-02-15T17:55:19;12.13;;;9.73;;
7977;SDS011;4034;48.004;10.902;2023-02-15T17:58:06;11.23;;;9.53;;
7977;SDS011;4034;48.004;10.902;2023-02-15T18:00:34;12.53;;;9.93;;
7977;SDS011;4034;48.004;10.902;2023-02-15T18:03:19;10.97;;;9.70;;
7977;SDS011;4034;48.004;10.902;2023-02-15T18:06:03;15.63;;;9.23;;
7977;SDS011;4034;48.004;10.902;2023-02-15T18:08:48;13.57;;;10.87;;
7977;SDS011;4034;48.004;10.902;2023-02-15T18:11:33;19.00;;;12.50;;
7977;SDS011;4034;48.004;10.902;2023-02-15T18:14:12;16.27;;;12.63;;
7977;SDS011;4034;48.004;10.902;2023-02-15T18:16:39;13.03;;;10.03;;
7977;SDS011;4034;48.004;10.902;2023-02-15T18:19:17;14.60;;;11.97;;
7977;SDS011;4034;48.004;10.902;2023-02-15T18:21:43;13.00;;;10.63;;
7977;SDS011;4034;48.004;10.902;2023-02-15T18:24:13;10.63;;;8.97;;
7977;SDS011;4034;48.004;10.902;2023-02-15T18:26:39;12.50;;;10.30;;
7977;SDS011;4034;48.004;10.902;2023-02-15T18:29:05;12.77;;;10.33;;
7977;SDS011;4034;48.004;10.902;2023-02-15T18:31:32;14.67;;;9.93;;
7977;SDS011;4034;48.004;10.902;2023-02-15T18:33:58;14.63;;;10.57;;
7977;SDS011;4034;48.004;10.902;2023-02-15T18:36:27;18.73;;;11.27;;
7977;SDS011;4034;48.004;10.902;2023-02-15T18:38:57;11.73;;;9.43;;
7977;SDS011;4034;48.004;10.902;2023-02-15T18:41:23;10.20;;;8.77;;
7977;SDS011;4034;48.004;10.902;2023-02-15T18:43:50;12.00;;;8.83;;
7977;SDS011;4034;48.004;10.902;2023-02-15T18:46:17;14.03;;;11.10;;
7977;SDS011;4034;48.004;10.902;2023-02-15T18:48:44;19.63;;;14.10;;
7977;SDS011;4034;48.004;10.902;2023-02-15T18:51:15;27.03;;;20.33;;
7977;SDS011;4034;48.004;10.902;2023-02-15T18:53:42;17.40;;;13.37;;
7977;SDS011;4034;48.004;10.902;2023-02-15T18:56:11;41.80;;;26.40;;
7977;SDS011;4034;48.004;10.902;2023-02-15T18:58:39;113.80;;;54.60;;
7977;SDS011;4034;48.004;10.902;2023-02-15T19:01:10;85.53;;;46.07;;
7977;SDS011;4034;48.004;10.902;2023-02-15T19:03:40;27.70;;;19.23;;
7977;SDS011;4034;48.004;10.902;2023-02-15T19:06:08;22.00;;;13.87;;
7977;SDS011;4034;48.004;10.902;2023-02-15T19:08:34;16.77;;;12.93;;
7977;SDS011;4034;48.004;10.902;2023-02-15T19:11:01;14.63;;;11.23;;
7977;SDS011;4034;48.004;10.902;2023-02-15T19:13:27;22.10;;;17.90;;
7977;SDS011;4034;48.004;10.902;2023-02-15T19:15:53;21.80;;;19.40;;
7977;SDS011;4034;48.004;10.902;2023-02-15T19:18:19;17.30;;;14.17;;
7977;SDS011;4034;48.004;10.902;2023-02-15T19:20:45;16.60;;;11.83;;
7977;SDS011;4034;48.004;10.902;2023-02-15T19:23:19;20.07;;;15.83;;
7977;SDS011;4034;48.004;10.902;2023-02-15T19:25:46;20.40;;;14.67;;
7977;SDS011;4034;48.004;10.902;2023-02-15T19:28:17;23.53;;;16.57;;
7977;SDS011;4034;48.004;10.902;2023-02-15T19:30:43;31.40;;;23.67;;
7977;SDS011;4034;48.004;10.902;2023-02-15T19:33:16;23.40;;;16.40;;
7977;SDS011;4034;48.004;10.902;2023-02-15T19:35:43;17.17;;;13.50;;
7977;SDS011;4034;48.004;10.902;2023-02-15T19:38:13;18.93;;;13.47;;
7977;SDS011;4034;48.004;10.902;2023-02-15T19:40:39;16.53;;;12.33;;
7977;SDS011;4034;48.004;10.902;2023-02-15T19:43:09;12.37;;;10.17;;
7977;SDS011;4034;48.004;10.902;2023-02-15T19:45:39;18.23;;;13.97;;
7977;SDS011;4034;48.004;10.902;2023-02-15T19:48:05;19.73;;;15.53;;
7977;SDS011;4034;48.004;10.902;2023-02-15T19:50:32;15.00;;;13.43;;
7977;SDS011;4034;48.004;10.902;2023-02-15T19:52:58;19.60;;;15.17;;
7977;SDS011;4034;48.004;10.902;2023-02-15T19:57:54;13.67;;;11.70;;
